Airfield :
LOGIN :

Register | Disclaimer

   EN    FR    IT 

 










Legend :    VFR   Marginal VFR   IFR   Intensive IFR   Very Intensive IFR
Visi :
Ceiling :
>= 8 km
>= 3000ft
5 to 8 km
1000 to 3000 ft
1500m to 5 km
500 to 1000 ft
800 to 1500m
200 to 500 ft
< 800m
< 200 ft
Symbols :   Thunderstorms  Fog  Heavy snow  Heavy precipitations  Wind > 20 kt
SIGMETs :     Misc.  Thunderstorms  Icing  Turbulence  Mountain Waves  Volcanic Ashes






- Airport Elevation : 464 ft
- IATA code : EVX


LFOE - Evreux

CURRENT METAR :
  • 201400Z AUTO 04009KT 9999 FEW036/// ///TCU 20/12 Q1009 TEMPO 4000 SHRA BKN025 BKN035CB

EXPIRED METARs :
  • 201330Z AUTO 04011KT 360V080 9999 FEW034 SCT041 20/12 Q1010 TEMPO 4000 SHRA BKN025 BKN035CB
  • 201300Z AUTO 04011KT 350V070 9999 BKN034 BKN040 BKN046 20/12 Q1010 TEMPO 4000 SHRA BKN025 BKN035CB
  • 201230Z AUTO 03010KT 9999 FEW030 SCT038 BKN062 19/12 Q1010 TEMPO 4000 SHRA BKN025 BKN035CB
  • 201200Z AUTO 04010KT 360V070 9999 SCT031 SCT046 BKN098 20/12 Q1011 TEMPO 4000 SHRA BKN025 BKN035CB
  • 201130Z AUTO 04009KT 360V070 9999 SCT031 BKN040 20/12 Q1011 TEMPO 4000 SHRA BKN025 BKN035CB
  • 201100Z AUTO 06008KT 010V090 9999 BKN027 BKN032 19/12 Q1011 NOSIG
  • 201030Z AUTO 03006KT 350V070 9999 BKN024 BKN031 19/13 Q1011 NOSIG
  • 201000Z AUTO 03006KT 330V060 9999 FEW020 18/12 Q1011 NOSIG
  • 200930Z AUTO 04005KT 340V090 9999 FEW016 17/13 Q1011 NOSIG

TAF AMD TAF LFOE
Valid from the 20 at 09:00 until the 21 at 09:00 UTC


200842Z 2009/2109 02005KT 9999 BKN010
BECMG 2009/2011 SCT020
TEMPO 2013/2103 4000 SHRA BKN025 BKN035CB
PROB40
TEMPO 2016/2103 VRB15G30KT 2000 TSGSRA BKN010 BKN025CB
BECMG 2103/2105 BKN004
BECMG 2107/2109 BKN008



MET'MAP, your aeronautical weather chart ! - Copyright ORBIFLY December 2007 - Disclaimer

ORBIFLY MET'MAP TEAM :

Programming & Development : Alexandra Zaïnal
Original concept : Baudouin d'Aumeries
Technical & hardware support : Manuel Goepfert
Assistance : Marc-Olivier Méhu




SOURCES & CREDITS :

   NOAA